DGAA

Kotoka International Airport

Accra, Ghana
METAR DGAA 231000Z 23011KT 200V280 9999 FEW022 30/25 Q1010 NOSIG
Observed Flight Rules
Feb-23 @ 10:00 UTC (31 minutes ago) Visual Flight Rules
Wind Visibility Clouds
230° at 11 knots 10,000+ meters
  • Few at 2,200' AGL
Temperatures Readings
Current 30°C / 86°F
Dewpoint 25°C / 77°F
Humidity 75%
Altimeter 29.82" Hg
Pressure 1010 hPa
Elevation 69
METAR DGAA 231000Z 23011KT 200V280 9999 FEW022 30/25 Q1010 NOSIG
Observed Flight Rules
Feb-23 @ 10:00 UTC
(31 minutes ago)
VFR
Wind Visibility
230° at 11 knots 10,000+ meters
Clouds
  • Few at 2,200' AGL
Temperature Dewpoint
30°C / 86°F 25°C / 77°F
Humidity Altimeter Pressure
75% 29.82" Hg 1010 hPa